createdAt,value
2018-10-12T00:00:46.373Z,16.93
2018-10-12T00:03:14.032Z,16.45
2018-10-12T00:05:42.252Z,16.00
2018-10-12T00:08:09.895Z,17.17
2018-10-12T00:10:37.462Z,15.72
2018-10-12T00:13:05.340Z,16.77
2018-10-12T00:15:33.090Z,15.87
2018-10-12T00:18:00.748Z,15.53
2018-10-12T00:20:28.670Z,16.33
2018-10-12T00:22:56.372Z,17.10
2018-10-12T00:25:24.008Z,16.37
2018-10-12T00:27:51.758Z,15.23
2018-10-12T00:30:19.383Z,16.30
2018-10-12T00:32:47.086Z,16.27
2018-10-12T00:35:14.766Z,17.10
2018-10-12T00:37:42.563Z,16.00
2018-10-12T00:40:10.242Z,16.13
2018-10-12T00:42:37.885Z,16.70
2018-10-12T00:45:05.634Z,16.02
2018-10-12T00:47:33.313Z,15.30
2018-10-12T00:50:00.906Z,14.90
2018-10-12T00:52:28.496Z,16.70
2018-10-12T00:54:56.282Z,16.42
2018-10-12T00:57:24.079Z,15.80
2018-10-12T00:59:51.790Z,15.55
2018-10-12T01:02:19.467Z,17.17
2018-10-12T01:04:47.067Z,18.00
2018-10-12T01:07:14.779Z,17.67
2018-10-12T01:09:42.435Z,19.50
2018-10-12T01:12:25.090Z,17.53
2018-10-12T01:14:52.871Z,16.73
2018-10-12T01:17:20.539Z,16.07
2018-10-12T01:19:48.135Z,16.67
2018-10-12T01:22:15.856Z,17.53
2018-10-12T01:24:43.520Z,18.53
2018-10-12T01:27:11.208Z,18.17
2018-10-12T01:29:38.856Z,19.27
2018-10-12T01:32:06.530Z,19.23
2018-10-12T01:34:34.199Z,17.60
2018-10-12T01:37:01.810Z,16.90
2018-10-12T01:39:29.518Z,18.97
2018-10-12T01:41:57.354Z,18.63
2018-10-12T01:44:24.986Z,20.32
2018-10-12T01:46:52.629Z,19.20
2018-10-12T01:49:20.219Z,17.98
2018-10-12T01:51:47.869Z,18.35
2018-10-12T01:54:15.542Z,18.70
2018-10-12T01:56:43.214Z,18.50
2018-10-12T01:59:10.914Z,19.00
2018-10-12T02:01:38.566Z,17.55
2018-10-12T02:04:06.280Z,19.77
2018-10-12T02:06:33.975Z,18.83
2018-10-12T02:09:01.618Z,19.60
2018-10-12T02:11:29.269Z,18.07
2018-10-12T02:13:56.926Z,18.75
2018-10-12T02:16:24.579Z,18.50
2018-10-12T02:18:52.196Z,17.87
2018-10-12T02:21:19.853Z,18.30
2018-10-12T02:23:47.662Z,19.77
2018-10-12T02:26:15.315Z,18.73
2018-10-12T02:28:42.965Z,21.03
2018-10-12T02:31:10.648Z,19.80
2018-10-12T02:33:38.342Z,19.55
2018-10-12T02:36:06.440Z,19.40
2018-10-12T02:38:34.164Z,18.65
2018-10-12T02:41:01.881Z,18.77
2018-10-12T02:43:29.629Z,20.50
2018-10-12T02:45:57.358Z,20.03
2018-10-12T02:48:25.033Z,20.70
2018-10-12T02:50:52.771Z,20.63
2018-10-12T02:53:20.467Z,18.45
2018-10-12T02:55:48.141Z,18.90
2018-10-12T02:58:15.808Z,19.25
2018-10-12T03:00:43.510Z,20.20
2018-10-12T03:03:11.153Z,19.50
2018-10-12T03:05:38.817Z,20.40
2018-10-12T03:08:06.444Z,19.80
2018-10-12T03:10:34.082Z,19.73
2018-10-12T03:13:01.702Z,22.22
2018-10-12T03:15:29.357Z,21.10
2018-10-12T03:17:56.956Z,21.13
2018-10-12T03:20:24.617Z,18.98
2018-10-12T03:22:52.265Z,20.50
2018-10-12T03:25:19.907Z,20.45
2018-10-12T03:28:05.206Z,20.08
2018-10-12T03:30:32.897Z,19.13
2018-10-12T03:33:00.591Z,20.53
2018-10-12T03:35:28.335Z,20.00
2018-10-12T03:37:56.024Z,20.23
2018-10-12T03:40:23.673Z,20.73
2018-10-12T03:42:51.362Z,19.97
2018-10-12T03:45:18.963Z,19.00
2018-10-12T03:47:46.711Z,19.87
2018-10-12T03:50:14.399Z,19.77
2018-10-12T03:52:42.048Z,20.17
2018-10-12T03:55:09.715Z,20.70
2018-10-12T03:57:37.500Z,19.97
2018-10-12T04:00:05.167Z,19.45
2018-10-12T04:02:32.844Z,19.03
2018-10-12T04:05:00.577Z,20.77
2018-10-12T04:07:28.256Z,19.25
2018-10-12T04:09:56.003Z,21.13
2018-10-12T04:12:23.702Z,19.17
2018-10-12T04:14:51.413Z,21.10
2018-10-12T04:17:19.094Z,20.83
2018-10-12T04:19:46.751Z,20.00
2018-10-12T04:22:19.004Z,20.75
2018-10-12T04:24:46.809Z,18.53
2018-10-12T04:27:14.454Z,18.93
2018-10-12T04:29:42.132Z,19.85
2018-10-12T04:32:09.957Z,20.65
2018-10-12T04:34:37.650Z,19.27
2018-10-12T04:37:05.710Z,19.27
2018-10-12T04:39:50.002Z,18.83
2018-10-12T04:42:17.650Z,20.53
2018-10-12T04:44:45.310Z,19.75
2018-10-12T04:47:12.984Z,18.52
2018-10-12T04:49:40.769Z,19.30
2018-10-12T04:52:08.552Z,20.10
2018-10-12T04:54:36.172Z,18.73
2018-10-12T04:57:03.859Z,20.53
2018-10-12T04:59:31.571Z,20.95
2018-10-12T05:01:59.241Z,20.12
2018-10-12T05:04:26.910Z,22.30
2018-10-12T05:06:54.659Z,20.30
2018-10-12T05:09:22.349Z,19.80
2018-10-12T05:11:50.071Z,21.50
2018-10-12T05:14:17.736Z,20.80
2018-10-12T05:16:45.403Z,19.10
2018-10-12T05:19:13.113Z,20.25
2018-10-12T05:21:40.731Z,21.75
2018-10-12T05:24:08.391Z,20.50
2018-10-12T05:26:36.091Z,19.37
2018-10-12T05:29:03.853Z,21.77
2018-10-12T05:31:31.497Z,21.03
2018-10-12T05:33:59.220Z,20.37
2018-10-12T05:36:26.803Z,21.85
2018-10-12T05:38:54.433Z,22.40
2018-10-12T05:41:22.062Z,21.30
2018-10-12T05:43:49.790Z,21.17
2018-10-12T05:46:17.336Z,21.60
2018-10-12T05:49:02.619Z,21.30
2018-10-12T05:51:30.241Z,22.13
2018-10-12T05:53:58.124Z,20.48
2018-10-12T05:56:29.199Z,19.77
2018-10-12T05:58:57.719Z,20.93
2018-10-12T06:01:25.492Z,21.17
2018-10-12T06:03:53.135Z,21.23
2018-10-12T06:06:21.210Z,21.70
2018-10-12T06:08:48.932Z,23.13
2018-10-12T06:11:17.208Z,20.40
2018-10-12T06:13:44.982Z,20.53
2018-10-12T06:16:12.873Z,22.10
2018-10-12T06:18:40.596Z,23.00
2018-10-12T06:21:08.290Z,23.25
2018-10-12T06:23:36.108Z,23.12
2018-10-12T06:26:04.539Z,23.13
2018-10-12T06:28:32.212Z,22.27
2018-10-12T06:30:59.973Z,22.45
2018-10-12T06:33:27.656Z,23.35
2018-10-12T06:35:55.297Z,22.03
2018-10-12T06:38:22.940Z,22.03
2018-10-12T06:40:50.666Z,22.23
2018-10-12T06:43:18.332Z,23.10
2018-10-12T06:45:45.920Z,21.20
2018-10-12T06:48:13.526Z,23.17
2018-10-12T06:50:42.160Z,22.70
2018-10-12T06:53:10.343Z,21.87
2018-10-12T06:55:38.020Z,23.53
2018-10-12T06:58:06.383Z,23.47
2018-10-12T07:00:34.126Z,22.30
2018-10-12T07:03:01.842Z,22.40
2018-10-12T07:05:29.486Z,23.80
2018-10-12T07:07:57.270Z,23.20
2018-10-12T07:10:24.912Z,21.43
2018-10-12T07:12:52.575Z,22.77
2018-10-12T07:15:20.437Z,24.17
2018-10-12T07:17:48.052Z,22.50
2018-10-12T07:20:15.680Z,24.93
2018-10-12T07:22:43.519Z,21.27
2018-10-12T07:25:11.276Z,21.63
2018-10-12T07:27:38.993Z,20.45
2018-10-12T07:30:06.715Z,20.83
2018-10-12T07:32:34.563Z,21.43
2018-10-12T07:35:02.229Z,22.03
2018-10-12T07:37:29.948Z,19.35
2018-10-12T07:39:57.827Z,21.03
2018-10-12T07:42:25.612Z,21.93
2018-10-12T07:44:53.207Z,20.40
2018-10-12T07:47:20.844Z,21.00
2018-10-12T07:49:48.470Z,20.20
2018-10-12T07:52:16.106Z,20.80
2018-10-12T07:54:43.841Z,20.77
2018-10-12T07:57:12.524Z,20.80
2018-10-12T07:59:41.264Z,20.20
2018-10-12T08:02:09.675Z,20.43
2018-10-12T08:04:37.767Z,20.00
2018-10-12T08:07:05.650Z,19.23
2018-10-12T08:09:33.321Z,19.60
2018-10-12T08:12:00.929Z,20.17
2018-10-12T08:14:28.567Z,19.37
2018-10-12T08:16:56.179Z,20.03
2018-10-12T08:19:23.895Z,18.13
2018-10-12T08:21:51.586Z,18.63
2018-10-12T08:24:19.283Z,17.25
2018-10-12T08:26:46.988Z,17.57
2018-10-12T08:29:14.737Z,17.10
2018-10-12T08:31:42.468Z,18.13
2018-10-12T08:34:10.119Z,15.70
2018-10-12T08:36:37.904Z,16.73
2018-10-12T08:39:09.271Z,15.90
2018-10-12T08:41:37.140Z,16.73
2018-10-12T08:44:05.067Z,18.10
2018-10-12T08:46:33.100Z,16.30
2018-10-12T08:49:00.959Z,15.27
2018-10-12T08:51:28.566Z,15.40
2018-10-12T08:53:56.228Z,16.27
2018-10-12T08:56:23.883Z,15.28
2018-10-12T08:58:51.599Z,14.17
2018-10-12T09:01:19.210Z,15.63
2018-10-12T09:03:46.878Z,16.03
2018-10-12T09:06:14.962Z,16.85
2018-10-12T09:08:42.654Z,13.50
2018-10-12T09:11:10.312Z,13.53
2018-10-12T09:13:37.958Z,13.87
2018-10-12T09:16:06.019Z,14.33
2018-10-12T09:18:33.734Z,14.60
2018-10-12T09:21:01.756Z,15.87
2018-10-12T09:23:29.401Z,14.87
2018-10-12T09:25:57.082Z,16.23
2018-10-12T09:28:24.787Z,14.27
2018-10-12T09:30:52.804Z,14.38
2018-10-12T09:33:20.493Z,15.33
2018-10-12T09:35:48.215Z,13.10
2018-10-12T09:38:16.091Z,13.85
2018-10-12T09:40:43.693Z,14.25
2018-10-12T09:43:11.327Z,13.60
2018-10-12T09:45:39.109Z,12.77
2018-10-12T09:48:06.923Z,12.70
2018-10-12T09:50:34.637Z,14.00
2018-10-12T09:53:02.468Z,12.45
2018-10-12T09:55:30.131Z,12.65
2018-10-12T09:57:57.756Z,13.08
2018-10-12T10:00:31.152Z,12.63
2018-10-12T10:03:04.661Z,12.90
2018-10-12T10:05:32.477Z,11.90
2018-10-12T10:08:00.232Z,13.23
2018-10-12T10:10:27.900Z,13.28
2018-10-12T10:12:55.494Z,14.63
2018-10-12T10:15:23.761Z,13.23
2018-10-12T10:17:51.360Z,13.55
2018-10-12T10:20:19.055Z,12.80
2018-10-12T10:22:46.841Z,13.30
2018-10-12T10:25:14.553Z,12.90
2018-10-12T10:27:42.374Z,13.73
2018-10-12T10:30:10.196Z,11.90
2018-10-12T10:32:37.928Z,12.58
2018-10-12T10:35:06.140Z,12.45
2018-10-12T10:37:34.174Z,12.77
2018-10-12T10:40:01.878Z,12.40
2018-10-12T10:42:29.594Z,12.47
2018-10-12T10:44:57.294Z,11.88
2018-10-12T10:47:25.118Z,12.33
2018-10-12T10:49:52.857Z,13.10
2018-10-12T10:52:20.584Z,12.33
2018-10-12T10:54:48.246Z,11.73
2018-10-12T10:57:15.954Z,12.40
2018-10-12T10:59:43.743Z,12.07
2018-10-12T11:02:11.478Z,11.75
2018-10-12T11:04:39.184Z,12.83
2018-10-12T11:07:06.883Z,12.00
2018-10-12T11:09:34.577Z,12.00
2018-10-12T11:12:02.269Z,11.67
2018-10-12T11:14:29.878Z,12.80
2018-10-12T11:16:57.614Z,11.05
2018-10-12T11:19:25.369Z,10.80
2018-10-12T11:21:53.093Z,11.97
2018-10-12T11:24:20.785Z,11.00
2018-10-12T11:26:48.535Z,11.40
2018-10-12T11:29:16.261Z,9.30
2018-10-12T11:31:44.115Z,10.63
2018-10-12T11:34:11.772Z,11.20
2018-10-12T11:36:39.458Z,9.70
2018-10-12T11:39:11.401Z,9.48
2018-10-12T11:41:39.080Z,8.83
2018-10-12T11:44:06.823Z,8.18
2018-10-12T11:46:34.511Z,8.65
2018-10-12T11:49:02.173Z,9.80
2018-10-12T11:51:29.896Z,7.80
2018-10-12T11:53:57.561Z,9.07
2018-10-12T11:56:25.369Z,8.48
2018-10-12T11:58:53.079Z,7.92
2018-10-12T12:01:20.800Z,9.03
2018-10-12T12:03:48.475Z,7.97
2018-10-12T12:06:16.175Z,8.10
2018-10-12T12:08:43.826Z,10.35
2018-10-12T12:11:11.448Z,8.30
2018-10-12T12:13:39.112Z,8.83
2018-10-12T12:16:06.890Z,9.60
2018-10-12T12:18:34.593Z,9.47
2018-10-12T12:21:02.295Z,8.30
2018-10-12T12:23:30.050Z,8.60
2018-10-12T12:25:57.744Z,7.25
2018-10-12T12:28:25.583Z,7.55
2018-10-12T12:30:53.648Z,7.90
2018-10-12T12:33:21.338Z,8.43
2018-10-12T12:35:49.364Z,8.13
2018-10-12T12:38:16.823Z,8.60
2018-10-12T12:40:44.610Z,8.70
2018-10-12T12:43:12.777Z,8.27
2018-10-12T12:45:40.482Z,7.93
2018-10-12T12:48:08.388Z,8.00
2018-10-12T12:50:36.092Z,7.57
2018-10-12T12:53:03.805Z,7.72
2018-10-12T12:55:32.337Z,8.10
2018-10-12T12:58:00.596Z,8.10
2018-10-12T13:00:28.350Z,8.20
2018-10-12T13:02:56.032Z,8.23
2018-10-12T13:05:23.784Z,10.10
2018-10-12T13:07:51.468Z,8.53
2018-10-12T13:10:19.257Z,8.13
2018-10-12T13:12:46.936Z,8.70
2018-10-12T13:15:14.681Z,8.87
2018-10-12T13:17:42.420Z,8.43
2018-10-12T13:20:10.152Z,8.50
2018-10-12T13:22:38.433Z,9.30
2018-10-12T13:25:06.222Z,8.98
2018-10-12T13:27:33.884Z,8.93
2018-10-12T13:30:01.660Z,8.73
2018-10-12T13:32:29.925Z,8.60
2018-10-12T13:34:57.732Z,9.20
2018-10-12T13:37:25.588Z,8.47
2018-10-12T13:39:53.335Z,8.80
2018-10-12T13:42:21.146Z,8.70
2018-10-12T13:44:48.856Z,8.47
2018-10-12T13:47:16.491Z,8.90
2018-10-12T13:49:44.197Z,7.33
2018-10-12T13:52:11.883Z,8.97
2018-10-12T13:54:39.580Z,7.65
2018-10-12T13:57:07.362Z,9.08
2018-10-12T13:59:35.055Z,8.97
2018-10-12T14:02:02.785Z,9.50
2018-10-12T14:04:30.735Z,8.80
2018-10-12T14:06:58.417Z,8.70
2018-10-12T14:09:27.075Z,9.87
2018-10-12T14:11:54.766Z,9.13
2018-10-12T14:14:23.564Z,8.73
2018-10-12T14:16:51.324Z,9.83
2018-10-12T14:19:19.402Z,9.67
2018-10-12T14:21:46.821Z,8.90
2018-10-12T14:24:14.611Z,9.93
2018-10-12T14:26:42.335Z,8.13
2018-10-12T14:29:09.977Z,9.23
2018-10-12T14:31:37.729Z,9.07
2018-10-12T14:34:05.827Z,9.15
2018-10-12T14:36:33.676Z,9.33
2018-10-12T14:39:01.396Z,8.73
2018-10-12T14:41:29.160Z,8.90
2018-10-12T14:43:56.875Z,10.82
2018-10-12T14:46:24.491Z,9.83
2018-10-12T14:48:52.454Z,9.07
2018-10-12T14:51:20.199Z,9.90
2018-10-12T14:53:47.846Z,10.10
2018-10-12T14:56:16.070Z,8.98
2018-10-12T14:58:43.876Z,9.57
2018-10-12T15:01:11.933Z,9.17
2018-10-12T15:03:39.600Z,10.17
2018-10-12T15:06:07.340Z,10.68
2018-10-12T15:08:35.111Z,10.25
2018-10-12T15:11:02.718Z,11.93
2018-10-12T15:13:30.402Z,11.70
2018-10-12T15:15:58.097Z,12.60
2018-10-12T15:18:25.926Z,12.13
2018-10-12T15:20:53.663Z,14.33
2018-10-12T15:23:21.325Z,12.70
2018-10-12T15:25:49.173Z,12.97
2018-10-12T15:28:16.841Z,13.20
2018-10-12T15:30:44.619Z,13.17
2018-10-12T15:33:12.386Z,13.70
2018-10-12T15:35:40.081Z,12.77
2018-10-12T15:38:07.769Z,14.05
2018-10-12T15:40:35.745Z,15.03
2018-10-12T15:43:03.561Z,13.93
2018-10-12T15:45:31.254Z,12.93
2018-10-12T15:47:59.019Z,14.07
2018-10-12T15:50:26.840Z,14.77
2018-10-12T15:52:54.694Z,14.30
2018-10-12T15:55:22.571Z,12.60
2018-10-12T15:57:50.349Z,14.77
2018-10-12T16:00:18.120Z,17.10
2018-10-12T16:02:45.891Z,14.90
2018-10-12T16:05:13.665Z,14.90
2018-10-12T16:07:41.529Z,15.83
2018-10-12T16:10:09.543Z,14.33
2018-10-12T16:12:37.238Z,17.02
2018-10-12T16:15:05.265Z,14.57
2018-10-12T16:17:32.966Z,16.30
2018-10-12T16:20:00.676Z,14.70
2018-10-12T16:22:28.407Z,16.13
2018-10-12T16:25:13.429Z,15.08
2018-10-12T16:27:41.172Z,14.40
2018-10-12T16:30:09.007Z,18.25
2018-10-12T16:32:36.764Z,14.68
2018-10-12T16:35:04.808Z,16.20
2018-10-12T16:37:33.053Z,16.95
2018-10-12T16:40:00.736Z,14.97
2018-10-12T16:42:28.510Z,15.93
2018-10-12T16:44:58.358Z,15.68
2018-10-12T16:47:26.086Z,16.77
2018-10-12T16:49:53.852Z,14.38
2018-10-12T16:52:21.714Z,16.67
2018-10-12T16:54:49.452Z,15.72
2018-10-12T16:57:21.728Z,16.97
2018-10-12T16:59:49.697Z,17.77
2018-10-12T17:02:17.405Z,18.47
2018-10-12T17:04:45.168Z,16.52
2018-10-12T17:07:12.829Z,18.12
2018-10-12T17:09:41.127Z,18.27
2018-10-12T17:12:08.818Z,17.40
2018-10-12T17:14:36.770Z,19.37
2018-10-12T17:17:04.505Z,21.62
2018-10-12T17:19:32.415Z,18.37
2018-10-12T17:22:00.161Z,23.73
2018-10-12T17:24:27.941Z,22.07
2018-10-12T17:26:55.703Z,30.30
2018-10-12T17:29:23.433Z,23.30
2018-10-12T17:31:51.095Z,22.10
2018-10-12T17:34:18.809Z,21.33
2018-10-12T17:36:46.742Z,22.27
2018-10-12T17:39:14.580Z,24.97
2018-10-12T17:41:42.378Z,24.13
2018-10-12T17:44:10.215Z,20.10
2018-10-12T17:46:37.900Z,19.70
2018-10-12T17:49:06.653Z,18.97
2018-10-12T17:51:34.392Z,20.27
2018-10-12T17:54:02.099Z,21.68
2018-10-12T17:56:29.774Z,22.67
2018-10-12T17:58:57.642Z,22.90
2018-10-12T18:01:25.304Z,22.60
2018-10-12T18:03:53.156Z,23.47
2018-10-12T18:06:20.922Z,31.17
2018-10-12T18:08:49.022Z,44.35
2018-10-12T18:11:16.690Z,33.60
2018-10-12T18:13:44.357Z,29.37
2018-10-12T18:16:12.050Z,34.15
2018-10-12T18:18:39.815Z,30.40
2018-10-12T18:21:07.544Z,32.33
2018-10-12T18:23:35.482Z,36.17
2018-10-12T18:26:03.337Z,31.20
2018-10-12T18:28:31.005Z,46.47
2018-10-12T18:30:58.777Z,41.75
2018-10-12T18:33:26.445Z,37.08
2018-10-12T18:35:54.210Z,34.47
2018-10-12T18:38:21.901Z,35.43
2018-10-12T18:40:49.587Z,36.40
2018-10-12T18:43:17.353Z,31.40
2018-10-12T18:45:45.175Z,31.10
2018-10-12T18:48:12.917Z,30.50
2018-10-12T18:50:40.796Z,28.60
2018-10-12T18:53:08.550Z,22.32
2018-10-12T18:55:36.363Z,21.55
2018-10-12T18:58:04.277Z,20.60
2018-10-12T19:00:31.970Z,20.00
2018-10-12T19:02:59.948Z,19.53
2018-10-12T19:05:27.700Z,20.37
2018-10-12T19:07:55.631Z,18.00
2018-10-12T19:10:23.517Z,20.67
2018-10-12T19:12:51.240Z,20.63
2018-10-12T19:15:18.937Z,19.13
2018-10-12T19:17:47.571Z,27.35
2018-10-12T19:20:15.563Z,21.10
2018-10-12T19:22:43.378Z,20.92
2018-10-12T19:25:11.178Z,19.63
2018-10-12T19:27:38.992Z,20.77
2018-10-12T19:30:06.854Z,22.30
2018-10-12T19:32:34.595Z,23.80
2018-10-12T19:35:02.487Z,20.13
2018-10-12T19:37:30.329Z,20.00
2018-10-12T19:39:58.234Z,20.27
2018-10-12T19:42:26.203Z,19.57
2018-10-12T19:44:54.129Z,19.70
2018-10-12T19:47:22.477Z,24.53
2018-10-12T19:49:50.202Z,20.63
2018-10-12T19:52:18.078Z,19.57
2018-10-12T19:54:45.969Z,20.83
2018-10-12T19:57:13.769Z,18.60
2018-10-12T19:59:41.935Z,19.83
2018-10-12T20:02:09.735Z,19.63
2018-10-12T20:04:37.486Z,20.00
2018-10-12T20:07:05.394Z,18.33
2018-10-12T20:09:33.117Z,20.00
2018-10-12T20:12:01.837Z,18.93
2018-10-12T20:14:29.638Z,17.23
2018-10-12T20:16:57.386Z,20.65
2018-10-12T20:19:25.433Z,18.60
2018-10-12T20:21:53.366Z,18.32
2018-10-12T20:24:21.546Z,20.27
2018-10-12T20:26:51.022Z,20.47
2018-10-12T20:29:18.898Z,20.33
2018-10-12T20:31:46.788Z,19.43
2018-10-12T20:34:14.774Z,18.77
2018-10-12T20:36:42.535Z,19.27
2018-10-12T20:39:11.536Z,20.62
2018-10-12T20:41:39.599Z,20.90
2018-10-12T20:44:07.668Z,20.67
2018-10-12T20:46:35.450Z,22.33
2018-10-12T20:49:03.206Z,21.50
2018-10-12T20:51:31.018Z,24.07
2018-10-12T20:53:58.740Z,24.30
2018-10-12T20:56:26.452Z,23.30
2018-10-12T20:58:54.117Z,21.17
2018-10-12T21:01:21.926Z,20.33
2018-10-12T21:03:49.657Z,18.23
2018-10-12T21:06:17.356Z,18.90
2018-10-12T21:08:45.086Z,18.70
2018-10-12T21:11:12.750Z,17.83
2018-10-12T21:13:40.433Z,18.40
2018-10-12T21:16:08.461Z,16.97
2018-10-12T21:18:36.110Z,18.07
2018-10-12T21:21:03.868Z,19.10
2018-10-12T21:23:31.585Z,19.73
2018-10-12T21:25:59.260Z,18.82
2018-10-12T21:28:26.961Z,18.35
2018-10-12T21:30:54.656Z,17.20
2018-10-12T21:33:22.349Z,19.33
2018-10-12T21:35:50.010Z,18.57
2018-10-12T21:38:17.669Z,18.25
2018-10-12T21:40:45.300Z,17.40
2018-10-12T21:43:12.919Z,17.90
2018-10-12T21:45:40.655Z,18.00
2018-10-12T21:48:08.275Z,18.32
2018-10-12T21:50:36.019Z,17.63
2018-10-12T21:53:03.791Z,19.25
2018-10-12T21:55:31.456Z,19.73
2018-10-12T21:57:59.148Z,19.37
2018-10-12T22:00:26.985Z,18.60
2018-10-12T22:02:54.680Z,20.53
2018-10-12T22:05:22.400Z,18.83
2018-10-12T22:07:50.043Z,19.12
2018-10-12T22:10:17.664Z,18.25
2018-10-12T22:12:45.310Z,20.13
2018-10-12T22:15:12.985Z,17.77
2018-10-12T22:17:40.578Z,18.10
2018-10-12T22:20:08.218Z,17.50
2018-10-12T22:22:35.897Z,18.50
2018-10-12T22:25:03.646Z,18.77
2018-10-12T22:27:31.286Z,18.50
2018-10-12T22:29:58.962Z,16.97
2018-10-12T22:32:26.589Z,18.67
2018-10-12T22:34:54.286Z,19.67
2018-10-12T22:37:22.004Z,18.67
2018-10-12T22:39:49.693Z,19.57
2018-10-12T22:42:17.340Z,19.23
2018-10-12T22:44:45.024Z,19.73
2018-10-12T22:47:12.765Z,19.00
2018-10-12T22:49:40.397Z,18.53
2018-10-12T22:52:08.082Z,21.82
2018-10-12T22:54:35.879Z,20.77
2018-10-12T22:57:03.553Z,18.73
2018-10-12T22:59:31.195Z,18.37
2018-10-12T23:01:58.837Z,19.48
2018-10-12T23:04:26.499Z,20.60
2018-10-12T23:06:54.274Z,20.33
2018-10-12T23:09:21.910Z,21.07
2018-10-12T23:11:49.543Z,20.40
2018-10-12T23:14:17.195Z,19.20
2018-10-12T23:16:44.869Z,19.50
2018-10-12T23:19:12.544Z,19.30
2018-10-12T23:21:40.269Z,20.40
2018-10-12T23:24:07.910Z,21.40
2018-10-12T23:26:35.620Z,19.20
2018-10-12T23:29:03.281Z,21.45
2018-10-12T23:31:31.027Z,20.40
2018-10-12T23:34:03.524Z,20.53
2018-10-12T23:36:31.401Z,21.90
2018-10-12T23:38:59.430Z,21.93
2018-10-12T23:41:27.427Z,23.10
2018-10-12T23:43:55.468Z,24.20
2018-10-12T23:46:23.468Z,22.87
2018-10-12T23:48:51.142Z,22.80
2018-10-12T23:51:18.918Z,23.42
2018-10-12T23:53:46.567Z,24.47
2018-10-12T23:56:14.247Z,24.10
2018-10-12T23:58:41.935Z,24.03
